CheckWX is a tool to help pilots better visualize weather data.  It is not intended as a substitute for an official pre-flight weather briefing.

06:58:02 UTC

OTBH TAF
Al Udeid Air Base Airport
Ar Rayyan, Qatar
TAF OTBH 190000Z 1900/2006 33009KT 9000 HZ SKC QNH2949INS BECMG 1904/1905 35015G25KT 8000 HZ SKC QNH2955INS TEMPO 1907/1914 34025G35KT 6000 BLDU BECMG 1915/1916 33012G18KT 8000 HZ SKC QNH2953INS TX47/1910Z TN31/1902Z

Jun-19@
00:00 UTC

Jun-19 @ 00:00 UTC

Jun-19@
04:00 UTC

Jun-19 @ 04:00 UTC

TAF OTBH 190000Z 1900/2006 33009KT 9000 HZ SKC QNH2949INS

Expired

Wind
  • 330° at 9 KTS
Conditions
Haze
Cloud Levels
  • Clear skies

Jun-19@
04:00 UTC

Jun-19 @ 04:00 UTC

Jun-19@
15:00 UTC

Jun-19 @ 15:00 UTC

BECMG 1904/1905 35015G25KT 8000 HZ SKC QNH2955INS

Becoming

Becoming Conditions expected by Wed, Jun 19, 2019 @ 05:00 UTC

Wind
  • 350° at 15 KTS
  • {Gusting to 25 KTS
Conditions
Haze
Cloud Levels
  • Clear skies

Jun-19@
07:00 UTC

Jun-19 @ 07:00 UTC

Jun-19@
14:00 UTC

Jun-19 @ 14:00 UTC

TEMPO 1907/1914 34025G35KT 6000 BLDU

Temporary

Temporary Changes expected for less than half the time period

Wind
  • 340° at 25 KTS
  • {Gusting to 35 KTS
Conditions
Blowing Dust

Jun-19@
15:00 UTC

Jun-19 @ 15:00 UTC

Jun-20@
06:00 UTC

Jun-20 @ 06:00 UTC

BECMG 1915/1916 33012G18KT 8000 HZ SKC QNH2953INS TX47/1910Z TN31/1902Z

Becoming

Becoming Conditions expected by Wed, Jun 19, 2019 @ 16:00 UTC

Wind
  • 330° at 12 KTS
  • {Gusting to 18 KTS
Conditions
Haze
Cloud Levels
  • Clear skies